Time;durP1;ratioP1;P1;durP2;ratioP2;P2;SDS_P1;SDS_P2;PMS_P1;PMS_P2;Temp;Humidity;BMP_temperature;BMP_pressure;BME280_temperature;BME280_humidity;BME280_pressure;Samples;Min_cycle;Max_cycle;Signal;HPM_P1;HPM_P2
2022/04/12 00:01:16;;;;;;;5.00;3.30;;;;;;;12.32;61.35;100786.66;5027998;27;104032;-49
2022/04/12 00:03:43;;;;;;;5.55;3.60;;;;;;;12.30;61.33;100783.38;5030594;28;102124;-49
2022/04/12 00:06:11;;;;;;;5.05;3.13;;;;;;;12.31;61.42;100783.09;5034020;27;101882;-49
2022/04/12 00:08:38;;;;;;;3.42;3.08;;;;;;;12.30;61.42;100781.50;5034790;27;102122;-49
2022/04/12 00:11:06;;;;;;;4.10;3.33;;;;;;;12.32;61.35;100786.66;5032733;27;103997;-50
2022/04/12 00:13:34;;;;;;;5.72;3.70;;;;;;;12.31;61.37;100780.38;5032371;27;102226;-49
2022/04/12 00:16:20;;;;;;;6.30;3.10;;;;;;;12.31;61.37;100785.84;5022428;28;101965;-49
2022/04/12 00:19:02;;;;;;;3.85;2.90;;;;;;;12.31;61.64;100785.84;5031824;27;102558;-49
2022/04/12 00:21:34;;;;;;;4.47;3.17;;;;;;;12.32;61.40;100789.38;5031219;27;103487;-49
2022/04/12 00:24:02;;;;;;;4.00;3.33;;;;;;;12.32;61.50;100789.38;5013413;28;102135;-49
2022/04/12 00:26:29;;;;;;;5.97;3.22;;;;;;;12.32;61.74;100794.84;5032747;27;102048;-49
2022/04/12 00:28:55;;;;;;;5.65;3.45;;;;;;;12.32;61.86;100792.09;5033901;27;102337;-49
2022/04/12 00:31:22;;;;;;;4.15;3.00;;;;;;;12.32;61.51;100786.66;5032901;27;103602;-49
2022/04/12 00:33:49;;;;;;;5.28;3.10;;;;;;;12.33;61.54;100782.81;5029917;27;102602;-49
2022/04/12 00:36:15;;;;;;;3.65;3.00;;;;;;;12.32;61.83;100792.09;5033198;28;102605;-49
2022/04/12 00:38:43;;;;;;;4.50;3.13;;;;;;;12.32;61.68;100792.91;5032938;27;102190;-49
2022/04/12 00:41:11;;;;;;;4.43;3.28;;;;;;;12.32;61.76;100792.91;5032139;27;104091;-49
2022/04/12 00:43:44;;;;;;;4.78;3.05;;;;;;;12.32;62.01;100803.03;5032714;27;101813;-49
2022/04/12 00:46:11;;;;;;;5.35;3.03;;;;;;;12.32;61.61;100797.56;5032624;27;102342;-49
2022/04/12 00:48:37;;;;;;;4.38;3.20;;;;;;;12.32;61.52;100789.38;5031052;27;102247;-49
2022/04/12 00:51:04;;;;;;;4.65;3.33;;;;;;;12.32;61.81;100792.91;5031523;28;103920;-49
2022/04/12 00:53:31;;;;;;;5.80;3.33;;;;;;;12.33;61.88;100800.00;5032516;27;102429;-49
2022/04/12 00:55:58;;;;;;;4.28;3.22;;;;;;;12.32;61.67;100797.56;5032115;27;102027;-49
2022/04/12 00:58:25;;;;;;;4.90;3.80;;;;;;;12.32;61.82;100797.56;5031467;28;102404;-49
2022/04/12 01:00:53;;;;;;;6.17;3.30;;;;;;;12.33;61.83;100791.00;5030037;28;104034;-49
2022/04/12 01:03:20;;;;;;;4.63;3.38;;;;;;;12.32;62.03;100797.56;5032130;27;102558;-49
2022/04/12 01:05:47;;;;;;;5.15;3.33;;;;;;;12.32;61.82;100794.84;5026473;27;102002;-49
2022/04/12 01:08:14;;;;;;;4.55;2.92;;;;;;;12.32;61.50;100792.09;5033880;27;102610;-50
2022/04/12 01:10:44;;;;;;;5.55;3.20;;;;;;;12.32;61.81;100797.56;5030830;27;103957;-49
2022/04/12 01:13:12;;;;;;;5.15;3.35;;;;;;;12.31;61.97;100795.94;5032052;27;102422;-49
2022/04/12 01:15:40;;;;;;;4.27;2.80;;;;;;;12.32;61.70;100797.56;5025464;27;102300;-49
2022/04/12 01:18:07;;;;;;;5.43;3.05;;;;;;;12.31;61.96;100794.03;5032573;27;102239;-49
2022/04/12 01:20:34;;;;;;;4.93;3.28;;;;;;;12.31;61.73;100795.94;5030471;27;104026;-49
2022/04/12 01:23:12;;;;;;;5.30;3.20;;;;;;;12.31;62.07;100795.94;5032375;27;102408;-49
2022/04/12 01:25:41;;;;;;;4.88;3.55;;;;;;;12.32;61.94;100794.84;5030215;27;102642;-49
2022/04/12 01:28:09;;;;;;;4.83;3.20;;;;;;;12.30;61.89;100783.38;5016514;27;102286;-49
2022/04/12 01:30:36;;;;;;;4.70;3.28;;;;;;;12.30;61.87;100789.66;5016536;28;103894;-49
2022/04/12 01:33:04;;;;;;;3.92;3.13;;;;;;;12.31;62.21;100787.75;5033384;27;101996;-49
2022/04/12 01:35:31;;;;;;;6.72;3.30;;;;;;;12.30;61.89;100783.38;5029609;27;102069;-49
2022/04/12 01:37:59;;;;;;;4.75;2.97;;;;;;;12.30;62.02;100778.75;5022037;28;102144;-49
2022/04/12 01:40:25;;;;;;;6.07;3.45;;;;;;;12.30;62.42;100776.03;5031538;27;103726;-49
2022/04/12 01:42:54;;;;;;;4.97;3.25;;;;;;;12.31;61.87;100779.56;5031713;27;102040;-49
2022/04/12 01:45:21;;;;;;;4.75;2.90;;;;;;;12.31;61.95;100779.56;5031411;27;101949;-49
2022/04/12 01:47:48;;;;;;;6.57;3.50;;;;;;;12.30;61.86;100777.91;5033388;27;102418;-49
2022/04/12 01:50:16;;;;;;;6.40;3.75;;;;;;;12.30;62.14;100780.66;5028940;27;103939;-50
2022/04/12 01:52:42;;;;;;;5.03;3.20;;;;;;;12.30;62.15;100781.50;5029563;28;102261;-49
2022/04/12 01:55:09;;;;;;;7.20;3.10;;;;;;;12.30;62.00;100775.19;5029955;27;102566;-49
2022/04/12 01:57:38;;;;;;;3.90;2.92;;;;;;;12.30;61.84;100783.38;5032292;27;102698;-49
2022/04/12 02:00:07;;;;;;;3.97;3.03;;;;;;;12.30;62.23;100783.38;5019649;27;103918;-49
2022/04/12 02:02:34;;;;;;;5.25;3.33;;;;;;;12.29;62.32;100779.84;5029433;27;101975;-49
2022/04/12 02:05:00;;;;;;;5.13;3.00;;;;;;;12.29;61.80;100777.09;5028002;27;102650;-49
2022/04/12 02:07:27;;;;;;;4.45;3.40;;;;;;;12.31;62.29;100779.56;5032486;27;102390;-49
2022/04/12 02:09:55;;;;;;;4.00;3.00;;;;;;;12.29;62.04;100784.47;5022028;27;103508;-49
2022/04/12 02:12:21;;;;;;;4.30;3.20;;;;;;;12.29;62.02;100781.75;5029377;27;102795;-49
2022/04/12 02:14:50;;;;;;;5.70;3.38;;;;;;;12.28;62.19;100780.94;5030572;27;102282;-49
2022/04/12 02:17:18;;;;;;;4.53;3.00;;;;;;;12.29;62.07;100789.94;5032743;27;102318;-49
2022/04/12 02:19:45;;;;;;;5.00;3.25;;;;;;;12.30;62.16;100797.03;5014613;28;104568;-49
2022/04/12 02:22:12;;;;;;;5.95;3.40;;;;;;;12.28;62.38;100791.84;5028899;27;102720;-49
2022/04/12 02:24:39;;;;;;;3.85;3.08;;;;;;;12.29;62.32;100793.47;5030351;27;102665;-50
2022/04/12 02:27:06;;;;;;;4.18;3.33;;;;;;;12.27;62.42;100793.78;5031427;27;102204;-49
2022/04/12 02:29:33;;;;;;;4.40;3.00;;;;;;;12.27;62.13;100804.69;5027968;28;104243;-49
2022/04/12 02:32:00;;;;;;;3.78;3.15;;;;;;;12.29;62.21;100801.66;5030578;27;101999;-49
2022/04/12 02:34:28;;;;;;;4.72;3.15;;;;;;;12.27;61.94;100799.22;5030645;27;102369;-49
2022/04/12 02:36:54;;;;;;;4.85;3.17;;;;;;;12.29;62.06;100800.84;5030524;27;102389;-49
2022/04/12 02:39:21;;;;;;;4.43;3.20;;;;;;;12.29;62.00;100803.59;5030363;27;103955;-49
2022/04/12 02:41:49;;;;;;;4.10;3.50;;;;;;;12.29;62.47;100803.59;5031062;27;102296;-49
2022/04/12 02:44:17;;;;;;;5.07;3.40;;;;;;;12.29;62.51;100804.38;5031515;27;102230;-49
2022/04/12 02:46:44;;;;;;;4.97;3.50;;;;;;;12.29;62.52;100814.50;5032163;27;102248;-49
2022/04/12 02:49:11;;;;;;;5.63;2.90;;;;;;;12.29;62.47;100817.22;5029901;27;103988;-49
2022/04/12 02:51:40;;;;;;;3.75;3.05;;;;;;;12.29;62.24;100819.94;5030524;27;102425;-49
2022/04/12 02:54:06;;;;;;;4.43;3.20;;;;;;;12.29;62.46;100817.22;5021436;27;102374;-49
2022/04/12 02:56:32;;;;;;;3.22;2.92;;;;;;;12.27;62.54;100812.88;5016885;28;102294;-49
2022/04/12 02:58:59;;;;;;;3.78;3.10;;;;;;;12.29;62.13;100817.22;5027395;27;103913;-50
2022/04/12 03:01:26;;;;;;;4.63;3.15;;;;;;;12.27;62.27;100818.31;5030945;28;102305;-50
2022/04/12 03:03:52;;;;;;;4.38;3.47;;;;;;;12.29;62.42;100814.50;5028604;27;102409;-49
2022/04/12 03:06:19;;;;;;;5.25;3.50;;;;;;;12.28;62.61;100821.88;5031609;27;102858;-49
2022/04/12 03:08:49;;;;;;;4.30;3.50;;;;;;;12.27;62.46;100818.31;5026688;27;103979;-50
2022/04/12 03:11:15;;;;;;;4.05;3.33;;;;;;;12.28;62.65;100824.59;5023460;27;102060;-49
2022/04/12 03:13:42;;;;;;;4.10;3.28;;;;;;;12.27;62.29;100823.78;5019877;28;102311;-49
2022/04/12 03:16:18;;;;;;;3.40;3.10;;;;;;;12.27;62.51;100821.06;5012648;28;101950;-49
2022/04/12 03:18:45;;;;;;;4.95;3.75;;;;;;;12.27;62.53;100821.06;5028907;27;103917;-50
2022/04/12 03:21:11;;;;;;;4.20;3.38;;;;;;;12.26;62.45;100822.16;5031187;27;102400;-49
2022/04/12 03:23:38;;;;;;;4.80;3.38;;;;;;;12.27;62.78;100823.78;5028106;27;102082;-49
2022/04/12 03:26:06;;;;;;;4.00;3.60;;;;;;;12.27;62.82;100834.69;5030718;27;102239;-49
2022/04/12 03:28:33;;;;;;;5.47;3.28;;;;;;;12.26;62.59;100833.06;5026814;28;103936;-49
2022/04/12 03:31:00;;;;;;;5.00;3.58;;;;;;;12.27;62.88;100839.34;5030334;28;101956;-49
2022/04/12 03:33:29;;;;;;;4.80;3.72;;;;;;;12.26;62.49;100844.00;5027842;27;102301;-49
2022/04/12 03:35:57;;;;;;;3.70;3.00;;;;;;;12.26;62.64;100846.72;5031264;27;102520;-49
2022/04/12 03:38:23;;;;;;;3.90;3.50;;;;;;;12.27;62.57;100844.81;5030009;27;103990;-49
2022/04/12 03:40:49;;;;;;;4.35;3.33;;;;;;;12.26;62.78;100844.00;5031223;27;102072;-49
2022/04/12 03:43:18;;;;;;;4.15;3.47;;;;;;;12.27;62.76;100844.81;5030431;27;102344;-49
2022/04/12 03:45:45;;;;;;;4.75;3.40;;;;;;;12.26;62.68;100843.16;5029588;27;102414;-49
2022/04/12 03:48:11;;;;;;;6.85;3.47;;;;;;;12.26;62.93;100846.72;5024046;27;103825;-49
2022/04/12 03:50:38;;;;;;;5.05;3.65;;;;;;;12.26;62.81;100854.91;5030711;28;102417;-49
2022/04/12 03:53:05;;;;;;;4.80;3.58;;;;;;;12.25;62.84;100853.25;5030443;27;102464;-49
2022/04/12 03:55:34;;;;;;;4.43;3.42;;;;;;;12.25;62.58;100858.72;5029816;27;102466;-50
2022/04/12 03:58:03;;;;;;;4.03;3.53;;;;;;;12.25;62.53;100845.06;5027565;28;104101;-49
2022/04/12 04:00:31;;;;;;;5.40;3.55;;;;;;;12.25;62.57;100855.97;5028876;27;101991;-49
2022/04/12 04:02:58;;;;;;;4.65;4.25;;;;;;;12.26;62.58;100856.78;5028937;27;102087;-49
2022/04/12 04:05:26;;;;;;;5.05;4.15;;;;;;;12.25;62.83;100858.72;5030151;27;102777;-49
2022/04/12 04:07:53;;;;;;;4.65;4.05;;;;;;;12.25;62.76;100864.16;5027663;27;104103;-49
2022/04/12 04:10:20;;;;;;;4.63;3.80;;;;;;;12.26;62.51;100864.97;5030060;27;102370;-49
2022/04/12 04:12:47;;;;;;;4.35;3.63;;;;;;;12.26;62.51;100863.09;5030266;27;102503;-49
2022/04/12 04:15:14;;;;;;;4.50;3.70;;;;;;;12.27;62.86;100866.63;5029533;27;102667;-49
2022/04/12 04:17:44;;;;;;;4.82;3.75;;;;;;;12.27;62.57;100862.00;5028425;27;103939;-49
2022/04/12 04:20:11;;;;;;;5.90;3.80;;;;;;;12.29;62.67;100869.06;5029851;27;102558;-49
2022/04/12 04:22:40;;;;;;;4.32;3.92;;;;;;;12.29;62.87;100875.34;5030119;27;102483;-49
2022/04/12 04:25:08;;;;;;;4.30;3.80;;;;;;;12.29;62.50;100875.34;5017691;27;102138;-50
2022/04/12 04:27:35;;;;;;;6.13;3.83;;;;;;;12.29;62.61;100869.88;5030095;28;103854;-49
2022/04/12 04:30:04;;;;;;;4.47;3.45;;;;;;;12.29;62.57;100875.34;5029267;28;102315;-50
2022/04/12 04:32:33;;;;;;;4.70;3.70;;;;;;;12.30;62.55;100870.69;5028923;27;102498;-49
2022/04/12 04:35:01;;;;;;;4.72;3.63;;;;;;;12.31;62.52;100875.09;5029136;27;102254;-49
2022/04/12 04:37:28;;;;;;;6.72;4.38;;;;;;;12.31;62.43;100872.34;5027490;27;103869;-49
2022/04/12 04:39:57;;;;;;;4.32;3.83;;;;;;;12.31;62.40;100877.81;5027891;27;102709;-49
2022/04/12 04:42:24;;;;;;;5.68;3.95;;;;;;;12.32;62.18;100873.97;5030433;27;102376;-49
2022/04/12 04:44:51;;;;;;;4.75;3.97;;;;;;;12.32;62.31;100879.44;5027293;27;102788;-49
2022/04/12 04:47:17;;;;;;;4.10;3.70;;;;;;;12.33;62.69;100881.06;5027649;27;104582;-49
2022/04/12 04:49:44;;;;;;;4.32;3.90;;;;;;;12.33;62.26;100881.06;5033670;27;101774;-49
2022/04/12 04:52:12;;;;;;;5.80;3.95;;;;;;;12.33;62.40;100887.31;5033890;27;101813;-49
2022/04/12 04:54:38;;;;;;;4.43;3.75;;;;;;;12.35;62.56;100889.78;5034530;27;102255;-49
2022/04/12 04:57:05;;;;;;;4.13;3.65;;;;;;;12.34;62.53;100888.97;5032942;27;103959;-49
2022/04/12 04:59:31;;;;;;;4.70;3.90;;;;;;;12.37;62.23;100890.31;5033017;27;102203;-49
2022/04/12 05:01:57;;;;;;;5.18;3.95;;;;;;;12.38;62.48;100883.78;5028665;27;102587;-49
2022/04/12 05:04:24;;;;;;;6.20;4.30;;;;;;;12.39;62.11;100893.59;5031804;27;102175;-49
2022/04/12 05:06:52;;;;;;;4.23;3.67;;;;;;;12.38;62.23;100890.06;5031481;27;103984;-49
2022/04/12 05:09:20;;;;;;;4.40;4.00;;;;;;;12.40;62.61;100897.94;5032109;27;102411;-49
2022/04/12 05:11:49;;;;;;;4.78;4.13;;;;;;;12.41;62.37;100897.69;5029595;27;102549;-49
2022/04/12 05:14:15;;;;;;;6.15;4.00;;;;;;;12.41;62.41;100899.59;5029916;27;102752;-49
2022/04/12 05:16:44;;;;;;;5.13;3.60;;;;;;;12.43;62.44;100897.41;5032761;27;104005;-49
2022/04/12 05:19:10;;;;;;;5.13;4.05;;;;;;;12.42;62.49;100893.84;5033544;27;102309;-49
2022/04/12 05:21:38;;;;;;;3.90;3.60;;;;;;;12.46;62.12;100905.03;5031580;28;102452;-49
2022/04/12 05:24:05;;;;;;;3.95;3.55;;;;;;;12.47;62.01;100901.19;5033868;28;102325;-49
2022/04/12 05:26:33;;;;;;;3.67;3.28;;;;;;;12.48;61.92;100906.41;5031493;27;103914;-49
2022/04/12 05:29:01;;;;;;;4.10;3.70;;;;;;;12.49;62.32;100908.03;5029995;28;102196;-49
2022/04/12 05:31:28;;;;;;;4.05;3.67;;;;;;;12.50;62.40;100901.47;5032295;27;102031;-49
2022/04/12 05:33:56;;;;;;;3.87;3.50;;;;;;;12.52;62.17;100900.38;5033878;27;102241;-49
2022/04/12 05:36:23;;;;;;;4.35;3.92;;;;;;;12.53;62.24;100902.00;5032691;27;103778;-49
2022/04/12 05:38:49;;;;;;;4.13;3.60;;;;;;;12.54;62.18;100909.09;5029344;28;101950;-49
2022/04/12 05:41:16;;;;;;;4.80;3.72;;;;;;;12.55;61.85;100910.72;5045344;27;102636;-49
2022/04/12 05:43:43;;;;;;;4.40;3.97;;;;;;;12.56;62.10;100910.47;5047301;27;102753;-49
2022/04/12 05:46:10;;;;;;;4.28;3.88;;;;;;;12.56;62.13;100909.66;5031607;27;103878;-49
2022/04/12 05:48:37;;;;;;;4.63;4.10;;;;;;;12.57;62.06;100917.53;5031192;28;102087;-49
2022/04/12 05:51:05;;;;;;;4.43;4.03;;;;;;;12.58;61.53;100915.63;5031920;27;101967;-49
2022/04/12 05:53:32;;;;;;;4.80;4.07;;;;;;;12.58;61.90;100921.91;5025203;27;102608;-49
2022/04/12 05:55:58;;;;;;;4.78;3.75;;;;;;;12.59;62.09;100922.75;5028113;28;103932;-49
2022/04/12 05:58:26;;;;;;;6.50;4.10;;;;;;;12.59;62.05;100923.56;5029470;27;102334;-49
2022/04/12 06:00:54;;;;;;;5.05;4.28;;;;;;;12.60;61.78;100927.91;5014734;27;101981;-49
2022/04/12 06:03:22;;;;;;;3.95;3.60;;;;;;;12.60;62.06;100936.09;5032600;27;103344;-49
2022/04/12 06:05:49;;;;;;;4.47;3.67;;;;;;;12.61;62.07;100926.81;5032206;27;103985;-49
2022/04/12 06:08:17;;;;;;;5.67;4.10;;;;;;;12.62;62.00;100917.53;5029752;27;102574;-49
2022/04/12 06:10:44;;;;;;;4.75;4.00;;;;;;;12.62;61.97;100931.19;5031254;27;102302;-49
2022/04/12 06:13:11;;;;;;;4.70;4.00;;;;;;;12.63;61.91;100935.53;5016083;28;102546;-50
2022/04/12 06:15:39;;;;;;;4.28;3.80;;;;;;;12.63;61.76;100926.53;5028481;28;103723;-49
2022/04/12 06:18:10;;;;;;;5.53;4.30;;;;;;;12.63;61.94;100921.09;5025084;28;102298;-49
2022/04/12 06:20:37;;;;;;;4.85;4.13;;;;;;;12.63;61.81;100924.63;5029207;27;102561;-49
2022/04/12 06:23:03;;;;;;;5.10;3.85;;;;;;;12.64;61.71;100926.25;5032685;27;102163;-49
2022/04/12 06:25:31;;;;;;;6.18;4.28;;;;;;;12.64;61.75;100937.16;5029729;27;103932;-49
2022/04/12 06:27:57;;;;;;;4.05;3.72;;;;;;;12.64;61.72;100931.72;5032373;28;101926;-50
2022/04/12 06:30:25;;;;;;;4.90;3.90;;;;;;;12.65;61.66;100933.34;5031326;27;101976;-49
2022/04/12 06:32:56;;;;;;;4.18;3.78;;;;;;;12.64;61.84;100928.97;5033225;28;102204;-49
2022/04/12 06:35:24;;;;;;;4.72;3.75;;;;;;;12.65;61.94;100933.34;5028928;28;103800;-49
2022/04/12 06:37:56;;;;;;;6.03;4.10;;;;;;;12.66;61.74;100940.44;5032165;28;102359;-49
2022/04/12 06:40:24;;;;;;;4.47;4.07;;;;;;;12.66;61.76;100939.63;5031300;27;102361;-49
2022/04/12 06:42:51;;;;;;;5.70;4.00;;;;;;;12.66;61.63;100945.91;5033250;27;102436;-49
2022/04/12 06:45:17;;;;;;;5.47;4.20;;;;;;;12.66;61.56;100935.00;5026783;27;103906;-49
2022/04/12 06:47:51;;;;;;;5.35;4.10;;;;;;;12.65;61.66;100938.78;5030749;28;102331;-49
2022/04/12 06:50:20;;;;;;;5.57;4.35;;;;;;;12.65;61.06;100937.97;5030505;28;102506;-50
2022/04/12 06:52:48;;;;;;;5.82;4.57;;;;;;;12.66;61.48;100939.63;5030667;27;102323;-49
2022/04/12 06:55:17;;;;;;;6.25;4.78;;;;;;;12.65;61.36;100938.78;5025562;27;103963;-49
2022/04/12 06:57:44;;;;;;;5.53;4.15;;;;;;;12.65;61.46;100936.06;5011165;28;101962;-49
2022/04/12 07:00:11;;;;;;;6.00;4.22;;;;;;;12.66;61.32;100929.53;5010445;28;102324;-49
2022/04/12 07:02:39;;;;;;;5.90;4.23;;;;;;;12.66;61.27;100935.00;5012394;28;102105;-50
2022/04/12 07:05:07;;;;;;;4.53;4.10;;;;;;;12.65;60.95;100938.78;5017098;28;103645;-49
2022/04/12 07:07:35;;;;;;;5.90;4.63;;;;;;;12.66;61.34;100935.00;5031529;27;102247;-49
2022/04/12 07:10:04;;;;;;;5.40;4.63;;;;;;;12.65;61.28;100936.06;5030323;27;101976;-49
2022/04/12 07:12:31;;;;;;;5.03;4.38;;;;;;;12.67;61.08;100942.06;5032182;27;102202;-49
2022/04/12 07:14:57;;;;;;;4.25;3.85;;;;;;;12.67;61.15;100936.63;5028203;27;103836;-49
2022/04/12 07:17:24;;;;;;;4.13;3.72;;;;;;;12.68;61.16;100937.44;5028236;27;102576;-49
2022/04/12 07:19:51;;;;;;;5.18;4.05;;;;;;;12.69;61.25;100949.97;5029775;27;103414;-49
2022/04/12 07:22:17;;;;;;;4.28;3.80;;;;;;;12.70;61.14;100940.72;5030466;27;102824;-49
2022/04/12 07:24:44;;;;;;;4.45;4.05;;;;;;;12.70;61.36;100951.63;5014383;28;104066;-49
2022/04/12 07:27:13;;;;;;;4.75;4.25;;;;;;;12.69;60.97;100948.09;5026586;28;103668;-49
2022/04/12 07:29:40;;;;;;;4.90;4.15;;;;;;;12.69;61.36;100956.28;5017935;28;103723;-49
2022/04/12 07:32:08;;;;;;;4.78;3.97;;;;;;;12.70;61.14;100941.53;5023907;28;102456;-49
2022/04/12 07:34:35;;;;;;;5.90;3.67;;;;;;;12.70;60.92;100930.59;5026935;28;103928;-49
2022/04/12 07:37:01;;;;;;;4.20;3.70;;;;;;;12.70;61.08;100930.59;5022327;27;102544;-58
2022/04/12 07:39:28;;;;;;;20.92;4.20;;;;;;;12.75;59.19;100932.47;5025981;27;102855;-49
2022/04/12 07:41:56;;;;;;;10.90;4.18;;;;;;;12.72;60.14;100933.84;5029334;27;102217;-49
2022/04/12 07:44:23;;;;;;;9.05;3.95;;;;;;;12.71;60.10;100926.75;5030148;27;102960;-49
2022/04/12 07:46:50;;;;;;;9.63;3.78;;;;;;;12.71;60.49;100934.94;5029637;27;101996;-49
2022/04/12 07:49:17;;;;;;;7.40;3.42;;;;;;;12.72;60.75;100931.13;5024580;27;102387;-50
2022/04/12 07:51:43;;;;;;;10.50;4.40;;;;;;;12.72;60.24;100928.38;5030337;28;102250;-49
2022/04/12 07:54:11;;;;;;;5.72;4.03;;;;;;;12.75;60.59;100938.75;5029595;27;103613;-49
2022/04/12 07:56:39;;;;;;;6.57;4.32;;;;;;;12.75;60.61;100937.94;5030390;27;102639;-49
2022/04/12 07:59:06;;;;;;;5.23;3.43;;;;;;;12.76;60.44;100931.38;5029774;27;102114;-49
2022/04/12 08:01:35;;;;;;;5.45;3.50;;;;;;;12.76;60.38;100939.56;5029453;27;102189;-49
2022/04/12 08:04:03;;;;;;;4.85;3.67;;;;;;;12.77;60.65;100926.75;5030079;27;103896;-49
2022/04/12 08:06:31;;;;;;;6.70;3.58;;;;;;;12.78;60.71;100931.13;5017698;27;102028;-49
2022/04/12 08:08:58;;;;;;;4.63;3.42;;;;;;;12.78;60.63;100934.66;5016492;28;102422;-50
2022/04/12 08:11:24;;;;;;;5.57;3.63;;;;;;;12.78;60.56;100925.66;5031655;27;102445;-49
2022/04/12 08:13:54;;;;;;;4.68;3.65;;;;;;;12.77;60.59;100933.03;5025827;27;104006;-50
2022/04/12 08:16:21;;;;;;;7.43;3.60;;;;;;;12.78;60.92;100940.13;5027486;28;102032;-49
2022/04/12 08:18:50;;;;;;;4.68;3.10;;;;;;;12.79;60.87;100922.63;5028488;27;102283;-50
2022/04/12 08:21:30;;;;;;;6.10;3.55;;;;;;;12.79;60.77;100938.19;5019618;27;102870;-49
2022/04/12 08:23:57;;;;;;;4.45;3.20;;;;;;;12.80;60.75;100934.34;5017071;28;104041;-49
2022/04/12 08:26:24;;;;;;;3.40;3.05;;;;;;;12.80;60.67;100929.72;5031786;27;102449;-49
2022/04/12 08:28:51;;;;;;;3.65;3.33;;;;;;;12.80;60.88;100934.34;5023957;27;102385;-49
2022/04/12 08:31:17;;;;;;;5.10;3.13;;;;;;;12.80;60.66;100942.56;5031151;27;102185;-49
2022/04/12 08:33:44;;;;;;;4.38;3.45;;;;;;;12.81;60.62;100936.81;5031710;27;103855;-50
2022/04/12 08:36:16;;;;;;;4.28;2.83;;;;;;;12.81;60.59;100944.22;5032939;27;102524;-49
2022/04/12 08:38:45;;;;;;;6.28;3.13;;;;;;;12.80;59.26;100934.34;5031557;27;102509;-49
2022/04/12 08:41:14;;;;;;;4.80;2.88;;;;;;;12.79;59.77;100935.47;5031922;27;102579;-49
2022/04/12 08:43:41;;;;;;;11.98;3.45;;;;;;;12.78;59.33;100940.13;5030570;27;103845;-49
2022/04/12 08:46:10;;;;;;;3.97;2.63;;;;;;;12.77;59.80;100933.03;5033408;27;101996;-50
2022/04/12 08:48:38;;;;;;;12.68;3.00;;;;;;;12.78;60.06;100936.56;5033520;27;102396;-49
2022/04/12 08:51:05;;;;;;;7.85;3.58;;;;;;;12.80;60.32;100937.09;5020744;27;102744;-49
2022/04/12 08:53:33;;;;;;;7.72;3.40;;;;;;;12.80;60.17;100940.63;5012812;28;104042;-49
2022/04/12 08:56:01;;;;;;;5.72;3.15;;;;;;;12.79;60.12;100939.00;5012148;28;102526;-49
2022/04/12 08:58:28;;;;;;;4.18;2.80;;;;;;;12.79;59.83;100932.72;5032487;28;102485;-49
2022/04/12 09:00:55;;;;;;;3.35;2.90;;;;;;;12.78;59.95;100929.19;5031258;27;102151;-49
2022/04/12 09:03:22;;;;;;;4.85;2.97;;;;;;;12.79;59.88;100943.66;5025890;27;103860;-49
2022/04/12 09:05:49;;;;;;;3.55;2.50;;;;;;;12.77;59.51;100930.28;5022504;27;102314;-49
2022/04/12 09:08:26;;;;;;;4.40;2.90;;;;;;;12.75;59.41;100911.44;5012745;28;101975;-49
2022/04/12 09:10:59;;;;;;;3.60;2.65;;;;;;;12.72;58.86;100942.03;5012495;28;102729;-49
2022/04/12 09:13:26;;;;;;;4.40;2.70;;;;;;;12.72;58.75;100928.38;5016511;28;103863;-48
2022/04/12 09:15:55;;;;;;;6.35;2.60;;;;;;;12.72;58.49;100922.91;5032936;27;101903;-48
2022/04/12 09:18:35;;;;;;;4.38;3.17;;;;;;;12.72;58.52;100933.03;5030826;27;102641;-49
2022/04/12 09:21:19;;;;;;;5.35;2.72;;;;;;;12.70;58.15;100922.41;5033148;27;102157;-49
2022/04/12 09:24:01;;;;;;;5.03;3.03;;;;;;;12.69;57.94;100934.44;5027875;27;103956;-49
2022/04/12 09:26:31;;;;;;;5.47;2.92;;;;;;;12.70;57.93;100924.31;5024351;28;102272;-49
2022/04/12 09:29:00;;;;;;;5.50;2.83;;;;;;;12.69;58.22;100928.13;5031961;27;102448;-49
2022/04/12 09:31:26;;;;;;;4.65;2.78;;;;;;;12.68;58.26;100924.59;5032232;27;102603;-49
2022/04/12 09:33:56;;;;;;;4.47;2.70;;;;;;;12.69;58.18;100917.22;5028170;27;104232;-49
2022/04/12 09:36:22;;;;;;;5.10;2.38;;;;;;;12.68;58.03;100931.97;5029041;27;102395;-49
2022/04/12 09:38:56;;;;;;;3.50;2.70;;;;;;;12.68;58.62;100926.50;5024400;27;102817;-48
2022/04/12 09:41:39;;;;;;;3.35;2.50;;;;;;;12.66;57.75;100921.34;5028083;28;102332;-48
2022/04/12 09:44:11;;;;;;;5.05;2.35;;;;;;;12.66;57.72;100921.34;5020712;27;103898;-49
2022/04/12 09:46:39;;;;;;;21.85;3.63;;;;;;;12.66;57.66;100932.25;5028309;28;102537;-49
2022/04/12 09:49:07;;;;;;;14.77;2.90;;;;;;;12.60;56.18;100930.63;5031020;28;101986;-49
2022/04/12 09:51:37;;;;;;;11.07;2.85;;;;;;;12.56;55.64;100929.56;5033287;27;102281;-49
2022/04/12 09:54:06;;;;;;;10.27;3.15;;;;;;;12.55;56.15;100921.63;5030573;27;104306;-49
2022/04/12 09:56:34;;;;;;;8.68;2.92;;;;;;;12.55;56.22;100927.94;5027464;28;102390;-48
2022/04/12 09:59:07;;;;;;;8.55;2.70;;;;;;;12.54;55.90;100931.75;5029161;27;102233;-49
2022/04/12 10:01:39;;;;;;;9.48;2.80;;;;;;;12.54;55.78;100920.81;5013238;28;101962;-49
2022/04/12 10:04:08;;;;;;;6.88;2.28;;;;;;;12.53;55.51;100937.50;5029087;28;103825;-49
2022/04/12 10:06:39;;;;;;;6.45;3.15;;;;;;;12.52;55.39;100928.50;5030799;27;102547;-49
2022/04/12 10:09:07;;;;;;;12.98;2.83;;;;;;;12.52;55.50;100928.50;5031907;28;102318;-49
2022/04/12 10:11:38;;;;;;;5.40;2.70;;;;;;;12.53;55.95;100929.31;5030557;28;102133;-49
2022/04/12 10:14:07;;;;;;;7.37;2.77;;;;;;;12.53;56.01;100929.31;5030580;27;103927;-49
2022/04/12 10:16:35;;;;;;;13.98;3.22;;;;;;;12.53;55.60;100938.31;5032530;27;102439;-49
2022/04/12 10:19:21;;;;;;;4.65;2.50;;;;;;;12.53;55.42;100943.78;5024687;27;103582;-50
2022/04/12 10:22:04;;;;;;;12.80;2.90;;;;;;;12.53;55.79;100941.03;5021267;28;102472;-46
2022/04/12 10:24:32;;;;;;;10.73;2.38;;;;;;;12.52;55.90;100942.16;5017501;27;103879;-47
2022/04/12 10:26:59;;;;;;;18.20;2.70;;;;;;;12.51;55.75;100937.75;5031881;28;101943;-45
2022/04/12 10:29:28;;;;;;;8.77;2.58;;;;;;;12.52;55.68;100939.41;5032234;27;102363;-45
2022/04/12 10:31:56;;;;;;;9.02;3.38;;;;;;;12.52;56.05;100942.16;5023329;27;102652;-45
2022/04/12 10:34:23;;;;;;;7.78;2.95;;;;;;;12.52;55.98;100950.34;5024351;28;103920;-47
2022/04/12 10:37:07;;;;;;;8.47;3.43;;;;;;;12.51;56.14;100945.94;5012955;27;102154;-46
2022/04/12 10:39:38;;;;;;;27.15;3.10;;;;;;;12.51;55.84;100948.69;5022872;28;102589;-49
2022/04/12 10:42:08;;;;;;;5.22;2.70;;;;;;;12.50;55.97;100933.41;5015316;28;102478;-46
2022/04/12 10:44:46;;;;;;;12.30;4.15;;;;;;;12.50;56.04;100931.50;5021213;27;104030;-47
2022/04/12 10:47:24;;;;;;;4.47;2.58;;;;;;;12.52;56.51;100939.41;5042006;27;102481;-49
2022/04/12 10:49:53;;;;;;;7.13;2.67;;;;;;;12.52;55.97;100933.94;5033200;27;102270;-48
2022/04/12 10:52:19;;;;;;;6.18;2.80;;;;;;;12.54;56.57;100939.94;5032304;27;102264;-48
2022/04/12 10:54:48;;;;;;;8.15;2.63;;;;;;;12.54;56.72;100950.84;5031320;27;104325;-46
2022/04/12 10:57:24;;;;;;;7.43;2.67;;;;;;;12.54;56.56;100956.31;5031794;27;103076;-47
2022/04/12 10:59:58;;;;;;;7.93;3.00;;;;;;;12.54;56.27;100953.59;5030927;27;102055;-46
2022/04/12 11:02:29;;;;;;;6.22;2.92;;;;;;;12.54;56.88;100958.22;5032940;27;102291;-46
2022/04/12 11:04:56;;;;;;;5.15;2.55;;;;;;;12.55;56.75;100955.25;5031322;27;103777;-45
2022/04/12 11:07:34;;;;;;;12.10;2.50;;;;;;;12.55;56.61;100971.63;5031835;27;102515;-45
2022/04/12 11:10:20;;;;;;;5.80;2.47;;;;;;;12.55;56.45;100966.16;5031156;27;102341;-48
2022/04/12 11:12:49;;;;;;;11.23;2.58;;;;;;;12.56;56.61;100964.25;5032562;28;102547;-46
2022/04/12 11:15:23;;;;;;;5.53;2.97;;;;;;;12.54;56.96;100964.50;5030763;27;104064;-47
2022/04/12 11:18:04;;;;;;;4.53;2.45;;;;;;;12.55;56.99;100970.78;5031717;27;102370;-48
2022/04/12 11:20:33;;;;;;;9.13;2.95;;;;;;;12.54;56.76;100972.69;5037628;27;101988;-46
2022/04/12 11:23:02;;;;;;;4.10;2.30;;;;;;;12.54;56.41;100961.78;5043019;27;102226;-47